sensor_id;sensor_type;location;lat;lon;timestamp;temperature;humidity
11597;DHT22;5854;48.072;16.286;2023-04-09T00:02:03;5.20;69.60
11597;DHT22;5854;48.072;16.286;2023-04-09T00:04:30;5.20;71.60
11597;DHT22;5854;48.072;16.286;2023-04-09T00:06:58;5.30;68.40
11597;DHT22;5854;48.072;16.286;2023-04-09T00:09:26;5.20;69.00
11597;DHT22;5854;48.072;16.286;2023-04-09T00:11:53;5.20;68.20
11597;DHT22;5854;48.072;16.286;2023-04-09T00:14:20;5.20;68.20
11597;DHT22;5854;48.072;16.286;2023-04-09T00:16:48;5.30;66.50
11597;DHT22;5854;48.072;16.286;2023-04-09T00:19:15;5.10;69.30
11597;DHT22;5854;48.072;16.286;2023-04-09T00:21:42;5.10;68.80
11597;DHT22;5854;48.072;16.286;2023-04-09T00:24:09;5.10;68.10
11597;DHT22;5854;48.072;16.286;2023-04-09T00:26:38;5.10;71.00
11597;DHT22;5854;48.072;16.286;2023-04-09T00:29:05;5.00;69.30
11597;DHT22;5854;48.072;16.286;2023-04-09T00:31:32;5.10;73.10
11597;DHT22;5854;48.072;16.286;2023-04-09T00:33:59;5.00;68.50
11597;DHT22;5854;48.072;16.286;2023-04-09T00:36:27;5.00;70.30
11597;DHT22;5854;48.072;16.286;2023-04-09T00:38:54;4.90;71.90
11597;DHT22;5854;48.072;16.286;2023-04-09T00:41:21;4.90;71.90
11597;DHT22;5854;48.072;16.286;2023-04-09T00:43:49;5.00;69.40
11597;DHT22;5854;48.072;16.286;2023-04-09T00:46:17;5.10;67.90
11597;DHT22;5854;48.072;16.286;2023-04-09T00:48:44;5.00;68.00
11597;DHT22;5854;48.072;16.286;2023-04-09T00:51:11;5.10;73.60
11597;DHT22;5854;48.072;16.286;2023-04-09T00:53:38;5.10;73.00
11597;DHT22;5854;48.072;16.286;2023-04-09T00:56:06;5.00;68.20
11597;DHT22;5854;48.072;16.286;2023-04-09T00:58:33;5.00;71.30
11597;DHT22;5854;48.072;16.286;2023-04-09T01:01:02;5.10;70.80
11597;DHT22;5854;48.072;16.286;2023-04-09T01:03:29;5.10;69.20
11597;DHT22;5854;48.072;16.286;2023-04-09T01:06:02;5.00;69.90
11597;DHT22;5854;48.072;16.286;2023-04-09T01:08:38;5.00;68.80
11597;DHT22;5854;48.072;16.286;2023-04-09T01:11:18;5.00;66.20
11597;DHT22;5854;48.072;16.286;2023-04-09T01:13:53;5.00;66.60
11597;DHT22;5854;48.072;16.286;2023-04-09T01:16:23;4.90;69.50
11597;DHT22;5854;48.072;16.286;2023-04-09T01:18:55;4.90;68.10
11597;DHT22;5854;48.072;16.286;2023-04-09T01:21:27;5.00;72.40
11597;DHT22;5854;48.072;16.286;2023-04-09T01:24:01;5.20;71.80
11597;DHT22;5854;48.072;16.286;2023-04-09T01:26:44;5.20;69.40
11597;DHT22;5854;48.072;16.286;2023-04-09T01:29:24;5.30;70.10
11597;DHT22;5854;48.072;16.286;2023-04-09T01:31:53;5.10;65.70
11597;DHT22;5854;48.072;16.286;2023-04-09T01:34:21;5.10;68.40
11597;DHT22;5854;48.072;16.286;2023-04-09T01:36:52;4.90;68.40
11597;DHT22;5854;48.072;16.286;2023-04-09T01:39:21;5.00;74.30
11597;DHT22;5854;48.072;16.286;2023-04-09T01:41:49;5.00;67.90
11597;DHT22;5854;48.072;16.286;2023-04-09T01:44:17;5.00;68.30
11597;DHT22;5854;48.072;16.286;2023-04-09T01:46:48;5.10;69.80
11597;DHT22;5854;48.072;16.286;2023-04-09T01:49:16;5.00;70.00
11597;DHT22;5854;48.072;16.286;2023-04-09T01:51:44;5.00;71.70
11597;DHT22;5854;48.072;16.286;2023-04-09T01:54:11;5.10;68.50
11597;DHT22;5854;48.072;16.286;2023-04-09T01:56:42;5.10;66.40
11597;DHT22;5854;48.072;16.286;2023-04-09T01:59:10;5.00;66.40
11597;DHT22;5854;48.072;16.286;2023-04-09T02:01:42;5.00;68.00
11597;DHT22;5854;48.072;16.286;2023-04-09T02:04:27;5.10;67.70
11597;DHT22;5854;48.072;16.286;2023-04-09T02:07:04;5.00;66.20
11597;DHT22;5854;48.072;16.286;2023-04-09T02:09:36;4.90;66.20
11597;DHT22;5854;48.072;16.286;2023-04-09T02:12:08;4.70;70.00
11597;DHT22;5854;48.072;16.286;2023-04-09T02:14:37;4.80;71.90
11597;DHT22;5854;48.072;16.286;2023-04-09T02:17:04;4.80;67.50
11597;DHT22;5854;48.072;16.286;2023-04-09T02:19:39;4.90;68.10
11597;DHT22;5854;48.072;16.286;2023-04-09T02:22:06;4.90;68.10
11597;DHT22;5854;48.072;16.286;2023-04-09T02:24:33;4.80;68.00
11597;DHT22;5854;48.072;16.286;2023-04-09T02:27:00;4.80;67.60
11597;DHT22;5854;48.072;16.286;2023-04-09T02:29:28;4.80;69.50
11597;DHT22;5854;48.072;16.286;2023-04-09T02:31:56;4.70;70.10
11597;DHT22;5854;48.072;16.286;2023-04-09T02:34:23;4.60;69.00
11597;DHT22;5854;48.072;16.286;2023-04-09T02:36:51;4.70;67.50
11597;DHT22;5854;48.072;16.286;2023-04-09T02:39:18;4.80;67.90
11597;DHT22;5854;48.072;16.286;2023-04-09T02:41:45;4.60;69.60
11597;DHT22;5854;48.072;16.286;2023-04-09T02:44:12;4.60;71.70
11597;DHT22;5854;48.072;16.286;2023-04-09T02:46:40;4.70;70.80
11597;DHT22;5854;48.072;16.286;2023-04-09T02:49:07;4.60;70.20
11597;DHT22;5854;48.072;16.286;2023-04-09T02:51:35;4.70;70.90
11597;DHT22;5854;48.072;16.286;2023-04-09T02:54:03;4.80;70.10
11597;DHT22;5854;48.072;16.286;2023-04-09T02:56:30;4.90;71.60
11597;DHT22;5854;48.072;16.286;2023-04-09T02:58:57;5.00;67.10
11597;DHT22;5854;48.072;16.286;2023-04-09T03:01:24;5.00;66.70
11597;DHT22;5854;48.072;16.286;2023-04-09T03:03:51;4.90;67.70
11597;DHT22;5854;48.072;16.286;2023-04-09T03:06:18;4.70;71.80
11597;DHT22;5854;48.072;16.286;2023-04-09T03:08:45;4.60;67.90
11597;DHT22;5854;48.072;16.286;2023-04-09T03:11:14;4.50;70.40
11597;DHT22;5854;48.072;16.286;2023-04-09T03:13:41;4.50;71.80
11597;DHT22;5854;48.072;16.286;2023-04-09T03:16:08;4.40;73.10
11597;DHT22;5854;48.072;16.286;2023-04-09T03:18:35;4.30;71.30
11597;DHT22;5854;48.072;16.286;2023-04-09T03:21:04;4.40;73.50
11597;DHT22;5854;48.072;16.286;2023-04-09T03:23:32;4.50;70.50
11597;DHT22;5854;48.072;16.286;2023-04-09T03:26:01;4.60;71.70
11597;DHT22;5854;48.072;16.286;2023-04-09T03:28:30;4.70;71.20
11597;DHT22;5854;48.072;16.286;2023-04-09T03:30:57;4.70;68.70
11597;DHT22;5854;48.072;16.286;2023-04-09T03:33:24;4.80;69.90
11597;DHT22;5854;48.072;16.286;2023-04-09T03:35:51;4.80;71.00
11597;DHT22;5854;48.072;16.286;2023-04-09T03:38:18;4.80;71.90
11597;DHT22;5854;48.072;16.286;2023-04-09T03:40:45;4.80;68.20
11597;DHT22;5854;48.072;16.286;2023-04-09T03:43:13;4.90;67.10
11597;DHT22;5854;48.072;16.286;2023-04-09T03:45:41;4.80;72.90
11597;DHT22;5854;48.072;16.286;2023-04-09T03:48:08;4.70;69.80
11597;DHT22;5854;48.072;16.286;2023-04-09T03:50:38;4.90;69.60
11597;DHT22;5854;48.072;16.286;2023-04-09T03:53:06;4.90;72.00
11597;DHT22;5854;48.072;16.286;2023-04-09T03:55:33;5.00;67.80
11597;DHT22;5854;48.072;16.286;2023-04-09T03:58:00;5.00;74.50
11597;DHT22;5854;48.072;16.286;2023-04-09T04:00:27;5.00;73.10
11597;DHT22;5854;48.072;16.286;2023-04-09T04:02:56;5.10;67.50
11597;DHT22;5854;48.072;16.286;2023-04-09T04:05:23;5.10;72.50
11597;DHT22;5854;48.072;16.286;2023-04-09T04:07:51;5.10;71.10
11597;DHT22;5854;48.072;16.286;2023-04-09T04:10:18;5.10;67.20
11597;DHT22;5854;48.072;16.286;2023-04-09T04:12:45;5.20;66.60
11597;DHT22;5854;48.072;16.286;2023-04-09T04:15:12;5.20;68.70
11597;DHT22;5854;48.072;16.286;2023-04-09T04:17:42;5.20;63.50
11597;DHT22;5854;48.072;16.286;2023-04-09T04:20:10;5.30;63.60
11597;DHT22;5854;48.072;16.286;2023-04-09T04:22:38;5.30;69.10
11597;DHT22;5854;48.072;16.286;2023-04-09T04:25:05;5.20;72.20
11597;DHT22;5854;48.072;16.286;2023-04-09T04:27:35;5.20;69.10
11597;DHT22;5854;48.072;16.286;2023-04-09T04:30:03;5.20;67.80
11597;DHT22;5854;48.072;16.286;2023-04-09T04:32:31;5.20;68.40
11597;DHT22;5854;48.072;16.286;2023-04-09T04:34:58;5.20;64.80
11597;DHT22;5854;48.072;16.286;2023-04-09T04:37:26;5.10;66.20
11597;DHT22;5854;48.072;16.286;2023-04-09T04:39:53;5.10;66.80
11597;DHT22;5854;48.072;16.286;2023-04-09T04:42:22;5.10;69.60
11597;DHT22;5854;48.072;16.286;2023-04-09T04:44:49;5.00;74.00
11597;DHT22;5854;48.072;16.286;2023-04-09T04:47:16;5.00;67.20
11597;DHT22;5854;48.072;16.286;2023-04-09T04:49:44;5.00;68.00
11597;DHT22;5854;48.072;16.286;2023-04-09T04:52:14;5.00;65.90
11597;DHT22;5854;48.072;16.286;2023-04-09T04:54:46;5.10;64.30
11597;DHT22;5854;48.072;16.286;2023-04-09T04:57:16;5.10;68.70
11597;DHT22;5854;48.072;16.286;2023-04-09T05:02:14;5.10;65.60
11597;DHT22;5854;48.072;16.286;2023-04-09T05:04:43;5.10;66.40
11597;DHT22;5854;48.072;16.286;2023-04-09T05:07:10;5.10;66.90
11597;DHT22;5854;48.072;16.286;2023-04-09T05:09:41;5.20;66.40
11597;DHT22;5854;48.072;16.286;2023-04-09T05:12:09;5.30;68.00
11597;DHT22;5854;48.072;16.286;2023-04-09T05:14:36;5.30;70.30
11597;DHT22;5854;48.072;16.286;2023-04-09T05:17:03;5.20;73.10
11597;DHT22;5854;48.072;16.286;2023-04-09T05:19:30;5.20;67.70
11597;DHT22;5854;48.072;16.286;2023-04-09T05:21:58;5.20;65.20
11597;DHT22;5854;48.072;16.286;2023-04-09T05:24:25;5.20;65.20
11597;DHT22;5854;48.072;16.286;2023-04-09T05:26:54;5.20;66.10
11597;DHT22;5854;48.072;16.286;2023-04-09T05:34:18;5.10;70.20
11597;DHT22;5854;48.072;16.286;2023-04-09T05:36:45;5.10;75.00
11597;DHT22;5854;48.072;16.286;2023-04-09T05:39:12;5.10;66.80
11597;DHT22;5854;48.072;16.286;2023-04-09T05:41:40;5.20;69.90
11597;DHT22;5854;48.072;16.286;2023-04-09T05:44:10;5.30;67.90
11597;DHT22;5854;48.072;16.286;2023-04-09T05:46:37;5.30;68.60
11597;DHT22;5854;48.072;16.286;2023-04-09T05:49:04;5.30;70.90
11597;DHT22;5854;48.072;16.286;2023-04-09T05:51:32;5.30;65.30
11597;DHT22;5854;48.072;16.286;2023-04-09T05:53:59;5.30;64.90
11597;DHT22;5854;48.072;16.286;2023-04-09T05:56:26;5.40;69.70
11597;DHT22;5854;48.072;16.286;2023-04-09T05:58:53;5.50;70.80
11597;DHT22;5854;48.072;16.286;2023-04-09T06:01:22;5.40;65.80
11597;DHT22;5854;48.072;16.286;2023-04-09T06:03:49;5.50;61.80
11597;DHT22;5854;48.072;16.286;2023-04-09T06:06:16;5.60;67.30
11597;DHT22;5854;48.072;16.286;2023-04-09T06:08:43;5.60;67.70
11597;DHT22;5854;48.072;16.286;2023-04-09T06:11:11;5.60;64.90
11597;DHT22;5854;48.072;16.286;2023-04-09T06:13:40;5.60;62.90
11597;DHT22;5854;48.072;16.286;2023-04-09T06:16:08;5.70;63.90
11597;DHT22;5854;48.072;16.286;2023-04-09T06:18:40;5.70;66.60
11597;DHT22;5854;48.072;16.286;2023-04-09T06:21:08;5.70;65.50
11597;DHT22;5854;48.072;16.286;2023-04-09T06:23:38;5.80;68.10
11597;DHT22;5854;48.072;16.286;2023-04-09T06:26:05;5.70;61.70
11597;DHT22;5854;48.072;16.286;2023-04-09T06:28:33;5.90;63.00
11597;DHT22;5854;48.072;16.286;2023-04-09T06:31:01;6.10;64.70
11597;DHT22;5854;48.072;16.286;2023-04-09T06:33:31;6.20;66.10
11597;DHT22;5854;48.072;16.286;2023-04-09T06:35:59;6.30;59.80
11597;DHT22;5854;48.072;16.286;2023-04-09T06:38:26;6.40;64.60
11597;DHT22;5854;48.072;16.286;2023-04-09T06:41:03;6.30;59.40
11597;DHT22;5854;48.072;16.286;2023-04-09T06:43:33;6.30;67.50
11597;DHT22;5854;48.072;16.286;2023-04-09T06:46:00;6.30;66.50
11597;DHT22;5854;48.072;16.286;2023-04-09T06:48:27;6.30;69.10
11597;DHT22;5854;48.072;16.286;2023-04-09T06:50:54;6.20;68.90
11597;DHT22;5854;48.072;16.286;2023-04-09T06:53:22;6.30;68.20
11597;DHT22;5854;48.072;16.286;2023-04-09T06:55:50;6.20;67.30
11597;DHT22;5854;48.072;16.286;2023-04-09T06:58:17;6.30;71.20
11597;DHT22;5854;48.072;16.286;2023-04-09T07:00:45;6.30;68.70
11597;DHT22;5854;48.072;16.286;2023-04-09T07:03:13;6.30;65.10
11597;DHT22;5854;48.072;16.286;2023-04-09T07:06:10;6.30;69.40
11597;DHT22;5854;48.072;16.286;2023-04-09T07:08:50;6.30;68.40
11597;DHT22;5854;48.072;16.286;2023-04-09T07:11:31;6.30;71.10
11597;DHT22;5854;48.072;16.286;2023-04-09T07:14:14;6.30;66.20
11597;DHT22;5854;48.072;16.286;2023-04-09T07:16:42;6.30;63.70
11597;DHT22;5854;48.072;16.286;2023-04-09T07:19:11;6.30;64.30
11597;DHT22;5854;48.072;16.286;2023-04-09T07:21:41;6.30;61.10
11597;DHT22;5854;48.072;16.286;2023-04-09T07:24:09;6.30;60.30
11597;DHT22;5854;48.072;16.286;2023-04-09T07:26:36;6.40;67.50
11597;DHT22;5854;48.072;16.286;2023-04-09T07:29:04;6.40;66.90
11597;DHT22;5854;48.072;16.286;2023-04-09T07:31:32;6.40;64.00
11597;DHT22;5854;48.072;16.286;2023-04-09T07:34:00;6.70;72.00
11597;DHT22;5854;48.072;16.286;2023-04-09T07:36:28;6.90;63.30
11597;DHT22;5854;48.072;16.286;2023-04-09T07:38:56;7.00;61.60
11597;DHT22;5854;48.072;16.286;2023-04-09T07:41:25;7.00;61.70
11597;DHT22;5854;48.072;16.286;2023-04-09T07:43:52;7.10;59.00
11597;DHT22;5854;48.072;16.286;2023-04-09T07:46:20;7.10;70.60
11597;DHT22;5854;48.072;16.286;2023-04-09T07:48:47;7.10;68.60
11597;DHT22;5854;48.072;16.286;2023-04-09T07:51:15;7.00;68.70
11597;DHT22;5854;48.072;16.286;2023-04-09T07:53:45;7.00;71.50
11597;DHT22;5854;48.072;16.286;2023-04-09T07:56:12;7.10;70.20
11597;DHT22;5854;48.072;16.286;2023-04-09T07:58:40;7.70;76.10
11597;DHT22;5854;48.072;16.286;2023-04-09T08:01:11;8.10;72.30
11597;DHT22;5854;48.072;16.286;2023-04-09T08:03:42;8.20;62.60
11597;DHT22;5854;48.072;16.286;2023-04-09T08:06:16;7.80;63.30
11597;DHT22;5854;48.072;16.286;2023-04-09T08:08:45;7.50;65.10
11597;DHT22;5854;48.072;16.286;2023-04-09T08:11:15;7.30;66.30
11597;DHT22;5854;48.072;16.286;2023-04-09T08:13:59;7.40;65.40
11597;DHT22;5854;48.072;16.286;2023-04-09T08:16:29;7.30;64.80
11597;DHT22;5854;48.072;16.286;2023-04-09T08:18:58;7.50;74.00
11597;DHT22;5854;48.072;16.286;2023-04-09T08:21:25;7.90;69.10
11597;DHT22;5854;48.072;16.286;2023-04-09T08:23:53;8.10;68.90
11597;DHT22;5854;48.072;16.286;2023-04-09T08:26:29;7.90;59.10
11597;DHT22;5854;48.072;16.286;2023-04-09T08:29:07;7.70;60.20
11597;DHT22;5854;48.072;16.286;2023-04-09T08:36:53;7.40;60.90
11597;DHT22;5854;48.072;16.286;2023-04-09T08:39:21;7.70;70.20
11597;DHT22;5854;48.072;16.286;2023-04-09T08:41:51;7.80;62.60
11597;DHT22;5854;48.072;16.286;2023-04-09T08:44:39;8.10;68.60
11597;DHT22;5854;48.072;16.286;2023-04-09T08:47:09;8.00;60.10
11597;DHT22;5854;48.072;16.286;2023-04-09T08:49:52;7.70;58.50
11597;DHT22;5854;48.072;16.286;2023-04-09T08:54:57;7.40;58.90
11597;DHT22;5854;48.072;16.286;2023-04-09T09:00:23;7.40;66.40
11597;DHT22;5854;48.072;16.286;2023-04-09T09:03:07;7.40;64.70
11597;DHT22;5854;48.072;16.286;2023-04-09T09:15:49;7.70;66.70
11597;DHT22;5854;48.072;16.286;2023-04-09T09:28:41;7.90;59.60
11597;DHT22;5854;48.072;16.286;2023-04-09T09:33:54;7.70;58.50
11597;DHT22;5854;48.072;16.286;2023-04-09T09:41:30;7.80;68.90
11597;DHT22;5854;48.072;16.286;2023-04-09T09:44:05;7.90;68.70
11597;DHT22;5854;48.072;16.286;2023-04-09T09:46:37;7.90;61.90
11597;DHT22;5854;48.072;16.286;2023-04-09T09:52:02;8.20;62.90
11597;DHT22;5854;48.072;16.286;2023-04-09T09:54:42;8.30;59.70
11597;DHT22;5854;48.072;16.286;2023-04-09T09:57:17;8.30;57.60
11597;DHT22;5854;48.072;16.286;2023-04-09T09:59:49;8.40;57.10
11597;DHT22;5854;48.072;16.286;2023-04-09T10:02:27;8.30;60.80
11597;DHT22;5854;48.072;16.286;2023-04-09T10:05:00;8.60;57.80
11597;DHT22;5854;48.072;16.286;2023-04-09T10:07:30;9.00;68.60
11597;DHT22;5854;48.072;16.286;2023-04-09T10:10:00;9.00;58.70
11597;DHT22;5854;48.072;16.286;2023-04-09T10:12:28;8.70;56.40
11597;DHT22;5854;48.072;16.286;2023-04-09T10:14:55;8.50;60.10
11597;DHT22;5854;48.072;16.286;2023-04-09T10:17:25;8.40;58.70
11597;DHT22;5854;48.072;16.286;2023-04-09T10:20:00;8.40;56.50
11597;DHT22;5854;48.072;16.286;2023-04-09T10:22:34;9.00;61.00
11597;DHT22;5854;48.072;16.286;2023-04-09T10:27:35;9.10;56.60
11597;DHT22;5854;48.072;16.286;2023-04-09T10:30:04;8.90;59.90
11597;DHT22;5854;48.072;16.286;2023-04-09T10:32:36;9.00;56.90
11597;DHT22;5854;48.072;16.286;2023-04-09T10:35:11;9.00;55.00
11597;DHT22;5854;48.072;16.286;2023-04-09T10:37:47;8.90;59.30
11597;DHT22;5854;48.072;16.286;2023-04-09T10:40:18;8.90;59.70
11597;DHT22;5854;48.072;16.286;2023-04-09T10:42:51;9.00;56.80
11597;DHT22;5854;48.072;16.286;2023-04-09T10:45:40;9.10;62.30
11597;DHT22;5854;48.072;16.286;2023-04-09T11:11:01;9.00;57.50
11597;DHT22;5854;48.072;16.286;2023-04-09T11:13:32;9.10;61.50
11597;DHT22;5854;48.072;16.286;2023-04-09T11:16:08;9.20;58.80
11597;DHT22;5854;48.072;16.286;2023-04-09T11:18:38;9.30;59.10
11597;DHT22;5854;48.072;16.286;2023-04-09T11:21:18;9.30;56.30
11597;DHT22;5854;48.072;16.286;2023-04-09T12:14:45;9.50;51.60
11597;DHT22;5854;48.072;16.286;2023-04-09T12:17:20;9.50;52.40
11597;DHT22;5854;48.072;16.286;2023-04-09T12:19:57;9.40;53.60
11597;DHT22;5854;48.072;16.286;2023-04-09T12:22:37;9.60;56.90
11597;DHT22;5854;48.072;16.286;2023-04-09T12:25:06;9.50;56.70
11597;DHT22;5854;48.072;16.286;2023-04-09T12:35:22;9.00;56.80
11597;DHT22;5854;48.072;16.286;2023-04-09T13:39:41;9.60;53.10
11597;DHT22;5854;48.072;16.286;2023-04-09T13:47:20;9.50;52.30
11597;DHT22;5854;48.072;16.286;2023-04-09T14:05:34;9.40;53.60
11597;DHT22;5854;48.072;16.286;2023-04-09T14:08:02;9.40;53.80
11597;DHT22;5854;48.072;16.286;2023-04-09T14:10:30;9.40;54.30
11597;DHT22;5854;48.072;16.286;2023-04-09T14:12:58;9.50;53.80
11597;DHT22;5854;48.072;16.286;2023-04-09T14:18:04;9.50;55.50
11597;DHT22;5854;48.072;16.286;2023-04-09T14:20:33;9.50;55.00
11597;DHT22;5854;48.072;16.286;2023-04-09T14:23:03;9.60;55.60
11597;DHT22;5854;48.072;16.286;2023-04-09T14:25:30;9.80;59.70
11597;DHT22;5854;48.072;16.286;2023-04-09T14:28:00;10.20;54.50
11597;DHT22;5854;48.072;16.286;2023-04-09T14:30:27;9.90;52.50
11597;DHT22;5854;48.072;16.286;2023-04-09T14:32:55;9.80;52.50
11597;DHT22;5854;48.072;16.286;2023-04-09T14:35:23;9.70;52.50
11597;DHT22;5854;48.072;16.286;2023-04-09T14:37:52;9.60;52.60
11597;DHT22;5854;48.072;16.286;2023-04-09T14:40:19;9.60;51.40
11597;DHT22;5854;48.072;16.286;2023-04-09T14:42:47;9.60;52.40
11597;DHT22;5854;48.072;16.286;2023-04-09T14:45:14;9.60;51.00
11597;DHT22;5854;48.072;16.286;2023-04-09T14:47:41;9.80;52.30
11597;DHT22;5854;48.072;16.286;2023-04-09T14:50:11;9.80;49.50
11597;DHT22;5854;48.072;16.286;2023-04-09T14:52:38;9.80;51.30
11597;DHT22;5854;48.072;16.286;2023-04-09T15:02:40;9.70;53.10
11597;DHT22;5854;48.072;16.286;2023-04-09T15:05:16;9.90;58.60
11597;DHT22;5854;48.072;16.286;2023-04-09T15:07:45;10.20;56.80
11597;DHT22;5854;48.072;16.286;2023-04-09T15:10:13;10.20;51.60
11597;DHT22;5854;48.072;16.286;2023-04-09T15:12:41;10.00;57.10
11597;DHT22;5854;48.072;16.286;2023-04-09T15:15:08;10.20;54.00
11597;DHT22;5854;48.072;16.286;2023-04-09T15:17:39;10.10;53.50
11597;DHT22;5854;48.072;16.286;2023-04-09T15:20:07;10.00;53.00
11597;DHT22;5854;48.072;16.286;2023-04-09T15:22:35;9.80;53.40
11597;DHT22;5854;48.072;16.286;2023-04-09T15:25:02;9.70;54.50
11597;DHT22;5854;48.072;16.286;2023-04-09T15:27:29;9.80;55.20
11597;DHT22;5854;48.072;16.286;2023-04-09T15:29:56;9.70;54.00
11597;DHT22;5854;48.072;16.286;2023-04-09T15:32:24;9.70;53.20
11597;DHT22;5854;48.072;16.286;2023-04-09T15:34:52;9.70;54.30
11597;DHT22;5854;48.072;16.286;2023-04-09T15:37:19;9.70;53.10
11597;DHT22;5854;48.072;16.286;2023-04-09T15:39:47;9.60;53.40
11597;DHT22;5854;48.072;16.286;2023-04-09T15:42:14;9.60;54.20
11597;DHT22;5854;48.072;16.286;2023-04-09T15:44:45;9.70;54.70
11597;DHT22;5854;48.072;16.286;2023-04-09T15:47:12;9.70;55.00
11597;DHT22;5854;48.072;16.286;2023-04-09T15:49:39;9.70;55.20
11597;DHT22;5854;48.072;16.286;2023-04-09T15:52:08;9.60;55.80
11597;DHT22;5854;48.072;16.286;2023-04-09T15:54:35;9.60;55.60
11597;DHT22;5854;48.072;16.286;2023-04-09T15:57:02;9.60;54.10
11597;DHT22;5854;48.072;16.286;2023-04-09T16:02:01;9.60;54.50
11597;DHT22;5854;48.072;16.286;2023-04-09T16:06:59;9.60;54.20
11597;DHT22;5854;48.072;16.286;2023-04-09T16:09:43;9.50;55.90
11597;DHT22;5854;48.072;16.286;2023-04-09T16:12:11;9.50;55.50
11597;DHT22;5854;48.072;16.286;2023-04-09T16:14:38;9.30;54.80
11597;DHT22;5854;48.072;16.286;2023-04-09T16:17:05;9.20;56.80
11597;DHT22;5854;48.072;16.286;2023-04-09T16:19:38;9.20;58.20
11597;DHT22;5854;48.072;16.286;2023-04-09T16:38:16;8.70;58.40
11597;DHT22;5854;48.072;16.286;2023-04-09T16:44:05;8.90;59.90
11597;DHT22;5854;48.072;16.286;2023-04-09T16:47:03;8.90;59.90
11597;DHT22;5854;48.072;16.286;2023-04-09T16:49:32;8.90;60.00
11597;DHT22;5854;48.072;16.286;2023-04-09T16:52:01;8.90;59.00
11597;DHT22;5854;48.072;16.286;2023-04-09T16:54:30;8.80;58.80
11597;DHT22;5854;48.072;16.286;2023-04-09T16:57:03;8.80;58.20
11597;DHT22;5854;48.072;16.286;2023-04-09T16:59:33;8.60;60.80
11597;DHT22;5854;48.072;16.286;2023-04-09T17:02:01;8.60;60.80
11597;DHT22;5854;48.072;16.286;2023-04-09T17:07:06;8.40;59.50
11597;DHT22;5854;48.072;16.286;2023-04-09T17:17:24;8.30;61.80
11597;DHT22;5854;48.072;16.286;2023-04-09T17:20:23;8.30;60.30
11597;DHT22;5854;48.072;16.286;2023-04-09T17:22:55;8.20;60.00
11597;DHT22;5854;48.072;16.286;2023-04-09T17:36:12;8.40;59.60
11597;DHT22;5854;48.072;16.286;2023-04-09T17:38:41;8.40;59.80
11597;DHT22;5854;48.072;16.286;2023-04-09T17:41:12;8.40;58.90
11597;DHT22;5854;48.072;16.286;2023-04-09T17:43:45;8.40;60.00
11597;DHT22;5854;48.072;16.286;2023-04-09T17:46:13;8.30;60.40
11597;DHT22;5854;48.072;16.286;2023-04-09T17:48:41;8.30;60.60
11597;DHT22;5854;48.072;16.286;2023-04-09T17:51:15;8.20;59.40
11597;DHT22;5854;48.072;16.286;2023-04-09T17:53:48;8.20;60.90
11597;DHT22;5854;48.072;16.286;2023-04-09T18:19:53;8.10;60.00
11597;DHT22;5854;48.072;16.286;2023-04-09T18:42:59;7.70;60.00
11597;DHT22;5854;48.072;16.286;2023-04-09T18:45:27;7.80;60.30
11597;DHT22;5854;48.072;16.286;2023-04-09T18:47:57;7.80;60.10
11597;DHT22;5854;48.072;16.286;2023-04-09T18:50:24;7.80;59.90
11597;DHT22;5854;48.072;16.286;2023-04-09T18:52:51;7.70;60.80
11597;DHT22;5854;48.072;16.286;2023-04-09T18:55:25;7.60;60.40
11597;DHT22;5854;48.072;16.286;2023-04-09T18:57:52;7.60;61.00
11597;DHT22;5854;48.072;16.286;2023-04-09T19:00:22;7.50;61.50
11597;DHT22;5854;48.072;16.286;2023-04-09T19:08:01;7.60;60.90
11597;DHT22;5854;48.072;16.286;2023-04-09T19:23:20;7.50;61.10
11597;DHT22;5854;48.072;16.286;2023-04-09T19:25:55;7.50;64.70
11597;DHT22;5854;48.072;16.286;2023-04-09T19:28:22;7.60;61.60
11597;DHT22;5854;48.072;16.286;2023-04-09T19:30:50;7.60;61.50
11597;DHT22;5854;48.072;16.286;2023-04-09T19:33:18;7.50;61.70
11597;DHT22;5854;48.072;16.286;2023-04-09T19:35:46;7.50;61.30
11597;DHT22;5854;48.072;16.286;2023-04-09T19:38:13;7.50;61.20
11597;DHT22;5854;48.072;16.286;2023-04-09T19:40:42;7.50;63.20
11597;DHT22;5854;48.072;16.286;2023-04-09T19:43:09;7.40;63.30
11597;DHT22;5854;48.072;16.286;2023-04-09T19:45:37;7.50;61.10
11597;DHT22;5854;48.072;16.286;2023-04-09T19:48:05;7.40;61.80
11597;DHT22;5854;48.072;16.286;2023-04-09T19:50:34;7.40;61.90
11597;DHT22;5854;48.072;16.286;2023-04-09T19:53:02;7.40;63.00
11597;DHT22;5854;48.072;16.286;2023-04-09T19:55:30;7.40;63.20
11597;DHT22;5854;48.072;16.286;2023-04-09T19:57:58;7.30;62.80
11597;DHT22;5854;48.072;16.286;2023-04-09T20:00:26;7.30;62.50
11597;DHT22;5854;48.072;16.286;2023-04-09T20:02:54;7.20;62.90
11597;DHT22;5854;48.072;16.286;2023-04-09T20:05:21;7.30;62.80
11597;DHT22;5854;48.072;16.286;2023-04-09T20:07:48;7.40;61.80
11597;DHT22;5854;48.072;16.286;2023-04-09T20:10:16;7.40;62.10
11597;DHT22;5854;48.072;16.286;2023-04-09T20:12:46;7.40;61.80
11597;DHT22;5854;48.072;16.286;2023-04-09T20:15:15;7.40;61.90
11597;DHT22;5854;48.072;16.286;2023-04-09T20:17:45;7.40;62.90
11597;DHT22;5854;48.072;16.286;2023-04-09T20:20:13;7.40;62.20
11597;DHT22;5854;48.072;16.286;2023-04-09T20:22:42;7.40;63.20
11597;DHT22;5854;48.072;16.286;2023-04-09T20:25:12;7.40;62.70
11597;DHT22;5854;48.072;16.286;2023-04-09T20:27:39;7.30;61.90
11597;DHT22;5854;48.072;16.286;2023-04-09T20:30:07;7.30;62.80
11597;DHT22;5854;48.072;16.286;2023-04-09T20:32:36;7.40;61.50
11597;DHT22;5854;48.072;16.286;2023-04-09T20:35:04;7.40;61.90
11597;DHT22;5854;48.072;16.286;2023-04-09T20:37:33;7.40;62.00
11597;DHT22;5854;48.072;16.286;2023-04-09T20:40:00;7.30;62.40
11597;DHT22;5854;48.072;16.286;2023-04-09T20:42:28;7.30;62.40
11597;DHT22;5854;48.072;16.286;2023-04-09T20:44:55;7.30;62.10
11597;DHT22;5854;48.072;16.286;2023-04-09T20:47:23;7.40;62.50
11597;DHT22;5854;48.072;16.286;2023-04-09T20:49:51;7.40;62.40
11597;DHT22;5854;48.072;16.286;2023-04-09T20:52:24;7.30;62.30
11597;DHT22;5854;48.072;16.286;2023-04-09T20:54:52;7.30;62.00
11597;DHT22;5854;48.072;16.286;2023-04-09T20:57:19;7.30;61.90
11597;DHT22;5854;48.072;16.286;2023-04-09T20:59:47;7.30;62.50
11597;DHT22;5854;48.072;16.286;2023-04-09T21:02:15;7.30;61.20
11597;DHT22;5854;48.072;16.286;2023-04-09T21:04:43;7.30;61.30
11597;DHT22;5854;48.072;16.286;2023-04-09T21:07:13;7.20;62.00
11597;DHT22;5854;48.072;16.286;2023-04-09T21:09:40;7.30;61.90
11597;DHT22;5854;48.072;16.286;2023-04-09T21:12:07;7.20;61.80
11597;DHT22;5854;48.072;16.286;2023-04-09T21:14:34;7.20;63.10
11597;DHT22;5854;48.072;16.286;2023-04-09T21:17:02;7.20;63.50
11597;DHT22;5854;48.072;16.286;2023-04-09T21:19:29;7.10;62.90
11597;DHT22;5854;48.072;16.286;2023-04-09T21:21:56;7.20;62.20
11597;DHT22;5854;48.072;16.286;2023-04-09T21:24:24;7.20;62.90
11597;DHT22;5854;48.072;16.286;2023-04-09T21:26:52;7.20;62.50
11597;DHT22;5854;48.072;16.286;2023-04-09T21:29:20;7.20;63.70
11597;DHT22;5854;48.072;16.286;2023-04-09T21:31:47;7.20;63.60
11597;DHT22;5854;48.072;16.286;2023-04-09T21:34:14;7.10;64.00